createdAt,value
2018-06-15T00:01:16.516Z,13.90
2018-06-15T00:03:45.057Z,13.90
2018-06-15T00:06:13.540Z,13.90
2018-06-15T00:08:41.921Z,13.90
2018-06-15T00:11:10.510Z,13.80
2018-06-15T00:13:38.938Z,13.80
2018-06-15T00:16:07.341Z,13.90
2018-06-15T00:18:35.792Z,13.90
2018-06-15T00:21:04.193Z,13.90
2018-06-15T00:23:32.631Z,13.90
2018-06-15T00:26:01.292Z,13.90
2018-06-15T00:28:29.666Z,13.80
2018-06-15T00:30:58.089Z,13.80
2018-06-15T00:33:26.475Z,13.80
2018-06-15T00:35:54.959Z,13.70
2018-06-15T00:38:23.353Z,13.70
2018-06-15T00:40:51.809Z,13.60
2018-06-15T00:43:20.279Z,13.60
2018-06-15T00:45:48.813Z,13.50
2018-06-15T00:48:17.242Z,13.50
2018-06-15T00:50:45.724Z,13.40
2018-06-15T00:53:14.153Z,13.40
2018-06-15T00:55:42.636Z,13.40
2018-06-15T00:58:11.304Z,13.40
2018-06-15T01:00:39.768Z,13.30
2018-06-15T01:03:08.217Z,13.30
2018-06-15T01:05:36.658Z,13.40
2018-06-15T01:08:05.170Z,13.30
2018-06-15T01:10:33.702Z,13.40
2018-06-15T01:13:02.093Z,13.30
2018-06-15T01:15:30.524Z,13.30
2018-06-15T01:17:59.214Z,13.30
2018-06-15T01:20:27.703Z,13.30
2018-06-15T01:22:56.187Z,13.20
2018-06-15T01:25:24.672Z,13.20
2018-06-15T01:27:53.423Z,13.20
2018-06-15T01:30:21.822Z,13.20
2018-06-15T01:32:50.262Z,13.20
2018-06-15T01:35:18.657Z,13.10
2018-06-15T01:37:47.088Z,13.00
2018-06-15T01:40:15.589Z,13.00
2018-06-15T01:42:44.173Z,13.00
2018-06-15T01:45:12.609Z,13.10
2018-06-15T01:47:41.097Z,13.10
2018-06-15T01:50:09.577Z,13.00
2018-06-15T01:52:38.754Z,13.00
2018-06-15T01:55:07.384Z,13.10
2018-06-15T01:57:36.477Z,13.10
2018-06-15T02:00:05.107Z,13.10
2018-06-15T02:02:33.547Z,13.00
2018-06-15T02:05:02.023Z,13.00
2018-06-15T02:07:30.417Z,13.00
2018-06-15T02:09:58.844Z,13.00
2018-06-15T02:12:27.394Z,13.10
2018-06-15T02:14:56.396Z,13.00
2018-06-15T02:17:24.840Z,12.90
2018-06-15T02:19:53.232Z,13.00
2018-06-15T02:22:21.620Z,13.00
2018-06-15T02:24:50.069Z,13.00
2018-06-15T02:27:18.489Z,13.00
2018-06-15T02:29:47.005Z,13.00
2018-06-15T02:32:15.998Z,13.00
2018-06-15T02:34:44.386Z,13.00
2018-06-15T02:37:12.806Z,13.10
2018-06-15T02:39:41.392Z,13.00
2018-06-15T02:42:09.914Z,13.00
2018-06-15T02:44:38.397Z,13.00
2018-06-15T02:47:06.824Z,13.10
2018-06-15T02:49:35.289Z,13.10
2018-06-15T02:52:03.723Z,13.10
2018-06-15T02:54:32.301Z,13.10
2018-06-15T02:57:00.805Z,13.10
2018-06-15T02:59:29.274Z,13.10
2018-06-15T03:01:57.803Z,13.10
2018-06-15T03:04:26.246Z,13.10
2018-06-15T03:06:54.682Z,13.00
2018-06-15T03:09:23.223Z,13.00
2018-06-15T03:11:51.759Z,13.10
2018-06-15T03:14:20.188Z,13.10
2018-06-15T03:16:48.774Z,13.00
2018-06-15T03:19:17.260Z,13.00
2018-06-15T03:21:46.200Z,12.90
2018-06-15T03:24:14.742Z,12.90
2018-06-15T03:26:43.300Z,12.90
2018-06-15T03:29:11.825Z,13.00
2018-06-15T03:31:40.265Z,12.90
2018-06-15T03:34:08.770Z,12.90
2018-06-15T03:39:07.957Z,12.90
2018-06-15T03:41:36.550Z,13.00
2018-06-15T03:44:05.050Z,13.00
2018-06-15T03:46:33.442Z,13.00
2018-06-15T03:49:02.024Z,13.00
2018-06-15T03:51:30.431Z,13.00
2018-06-15T03:53:58.939Z,13.00
2018-06-15T03:56:27.373Z,13.00
2018-06-15T03:58:55.856Z,13.00
2018-06-15T04:01:24.240Z,13.10
2018-06-15T04:06:20.891Z,13.00
2018-06-15T04:08:50.038Z,13.00
2018-06-15T04:11:18.850Z,13.00
2018-06-15T04:13:47.356Z,13.10
2018-06-15T04:16:16.046Z,13.00
2018-06-15T04:18:44.653Z,13.10
2018-06-15T04:21:13.174Z,13.10
2018-06-15T04:23:41.697Z,13.20
2018-06-15T04:28:35.354Z,13.20
2018-06-15T04:31:03.907Z,13.20
2018-06-15T04:33:32.352Z,13.20
2018-06-15T04:36:00.794Z,13.20
2018-06-15T04:38:29.494Z,13.30
2018-06-15T04:40:57.903Z,13.40
2018-06-15T04:43:26.423Z,13.40
2018-06-15T04:45:54.834Z,13.50
2018-06-15T04:48:23.272Z,13.50
2018-06-15T04:50:51.728Z,13.40
2018-06-15T04:55:48.327Z,13.40
2018-06-15T04:58:16.708Z,13.40
2018-06-15T05:00:45.250Z,13.50
2018-06-15T05:03:15.170Z,13.60
2018-06-15T05:05:44.773Z,13.60
2018-06-15T05:08:13.244Z,13.70
2018-06-15T05:10:41.666Z,13.80
2018-06-15T05:15:38.224Z,14.00
2018-06-15T05:20:34.825Z,14.10
2018-06-15T05:23:03.273Z,14.00
2018-06-15T05:25:31.814Z,14.10
2018-06-15T05:28:00.278Z,14.20
2018-06-15T05:30:28.809Z,14.30
2018-06-15T05:35:25.405Z,14.60
2018-06-15T05:37:53.817Z,14.70
2018-06-15T05:40:22.276Z,14.70
2018-06-15T05:42:50.678Z,14.70
2018-06-15T05:45:19.160Z,14.70
2018-06-15T05:47:48.082Z,14.80
2018-06-15T05:50:16.528Z,14.80
2018-06-15T05:52:44.950Z,14.90
2018-06-15T05:55:13.454Z,15.00
2018-06-15T05:57:41.909Z,15.10
2018-06-15T06:00:10.355Z,15.10
2018-06-15T06:05:07.080Z,15.30
2018-06-15T06:07:35.469Z,15.40
2018-06-15T06:10:04.796Z,15.50
2018-06-15T06:15:01.943Z,15.70
2018-06-15T06:17:30.399Z,15.70
2018-06-15T06:19:59.576Z,15.70
2018-06-15T06:22:28.503Z,15.80
2018-06-15T06:24:57.900Z,15.80
2018-06-15T06:27:27.221Z,15.90
2018-06-15T06:29:55.668Z,16.00
2018-06-15T06:32:24.216Z,16.10
2018-06-15T06:34:52.682Z,16.00
2018-06-15T06:37:21.159Z,16.10
2018-06-15T06:39:49.649Z,16.20
2018-06-15T06:42:18.086Z,16.30
2018-06-15T06:44:46.494Z,16.40
2018-06-15T06:47:15.011Z,16.40
2018-06-15T06:49:43.447Z,16.40
2018-06-15T06:52:11.926Z,16.60
2018-06-15T06:57:08.511Z,16.70
2018-06-15T06:59:36.965Z,16.80
2018-06-15T07:02:05.414Z,16.80
2018-06-15T07:04:34.293Z,16.80
2018-06-15T07:07:02.716Z,16.90
2018-06-15T07:09:31.176Z,17.00
2018-06-15T07:11:59.648Z,17.10
2018-06-15T07:14:29.051Z,17.10
2018-06-15T07:16:57.562Z,17.00
2018-06-15T07:19:26.026Z,17.10
2018-06-15T07:21:54.540Z,17.00
2018-06-15T07:24:23.031Z,17.00
2018-06-15T07:26:51.572Z,17.20
2018-06-15T07:29:20.030Z,17.30
2018-06-15T07:31:48.444Z,17.50
2018-06-15T07:34:16.913Z,17.50
2018-06-15T07:36:45.331Z,17.60
2018-06-15T07:39:13.848Z,17.60
2018-06-15T07:41:42.393Z,17.70
2018-06-15T07:44:10.831Z,17.60
2018-06-15T07:46:39.271Z,17.50
2018-06-15T07:49:07.785Z,17.40
2018-06-15T07:51:36.366Z,17.40
2018-06-15T07:54:04.845Z,17.40
2018-06-15T07:56:33.388Z,17.40
2018-06-15T07:59:01.792Z,17.40
2018-06-15T08:01:30.291Z,17.40
2018-06-15T08:04:06.088Z,17.40
2018-06-15T08:06:34.653Z,17.40
2018-06-15T08:09:03.886Z,17.50
2018-06-15T08:11:32.319Z,17.50
2018-06-15T08:14:00.789Z,17.40
2018-06-15T08:16:29.416Z,17.40
2018-06-15T08:18:57.913Z,17.50
2018-06-15T08:21:26.438Z,17.60
2018-06-15T08:23:55.489Z,17.60
2018-06-15T08:26:23.921Z,17.70
2018-06-15T08:28:58.864Z,17.70
2018-06-15T08:31:27.292Z,17.70
2018-06-15T08:33:55.733Z,17.70
2018-06-15T08:36:24.173Z,17.60
2018-06-15T08:41:20.817Z,17.60
2018-06-15T08:43:49.398Z,17.60
2018-06-15T08:46:17.850Z,17.60
2018-06-15T08:48:46.397Z,17.70
2018-06-15T08:51:14.860Z,17.80
2018-06-15T08:53:43.269Z,18.00
2018-06-15T08:56:11.730Z,18.20
2018-06-15T08:58:40.292Z,18.30
2018-06-15T09:01:08.792Z,18.50
2018-06-15T09:03:37.830Z,18.70
2018-06-15T09:08:34.529Z,18.80
2018-06-15T09:11:02.978Z,18.90
2018-06-15T09:18:27.821Z,18.90
2018-06-15T09:20:56.236Z,19.00
2018-06-15T09:23:24.687Z,19.10
2018-06-15T09:28:22.257Z,19.30
2018-06-15T09:30:51.068Z,19.50
2018-06-15T09:33:19.515Z,19.70
2018-06-15T09:35:48.857Z,19.70
2018-06-15T09:38:17.420Z,19.80
2018-06-15T09:43:20.722Z,19.80
2018-06-15T09:45:49.190Z,19.90
2018-06-15T09:48:17.589Z,19.80
2018-06-15T09:50:46.146Z,19.60
2018-06-15T09:53:14.586Z,19.50
2018-06-15T09:55:43.002Z,19.40
2018-06-15T09:58:11.566Z,19.30
2018-06-15T10:03:13.820Z,19.30
2018-06-15T10:05:42.258Z,19.30
2018-06-15T10:10:38.842Z,19.40
2018-06-15T10:13:07.323Z,19.50
2018-06-15T10:15:36.283Z,19.60
2018-06-15T10:20:33.888Z,19.90
2018-06-15T10:23:02.314Z,20.10
2018-06-15T10:25:30.761Z,20.20
2018-06-15T10:27:59.280Z,20.30
2018-06-15T10:30:27.686Z,20.40
2018-06-15T10:32:56.112Z,20.60
2018-06-15T10:35:24.559Z,20.60
2018-06-15T10:37:53.034Z,20.70
2018-06-15T10:40:21.577Z,20.70
2018-06-15T10:42:50.115Z,20.80
2018-06-15T10:45:18.514Z,20.80
2018-06-15T10:47:46.951Z,20.60
2018-06-15T10:50:15.351Z,20.40
2018-06-15T10:52:43.857Z,20.20
2018-06-15T10:55:12.379Z,20.10
2018-06-15T10:57:40.843Z,20.10
2018-06-15T11:00:09.315Z,20.00
2018-06-15T11:02:37.770Z,20.00
2018-06-15T11:05:06.509Z,20.10
2018-06-15T11:07:34.907Z,20.30
2018-06-15T11:10:03.385Z,20.50
2018-06-15T11:12:32.462Z,20.70
2018-06-15T11:15:00.994Z,20.80
2018-06-15T11:17:29.426Z,21.00
2018-06-15T11:19:58.644Z,21.10
2018-06-15T11:22:27.206Z,21.10
2018-06-15T11:24:55.735Z,21.10
2018-06-15T11:27:24.132Z,20.90
2018-06-15T11:29:52.570Z,21.00
2018-06-15T11:32:21.015Z,21.10
2018-06-15T11:34:50.348Z,21.20
2018-06-15T11:37:18.784Z,21.40
2018-06-15T11:39:47.444Z,21.40
2018-06-15T11:42:15.882Z,21.50
2018-06-15T11:44:44.319Z,21.50
2018-06-15T11:47:12.755Z,21.40
2018-06-15T11:49:41.263Z,21.40
2018-06-15T11:52:09.808Z,21.50
2018-06-15T11:54:38.277Z,21.50
2018-06-15T11:59:34.888Z,21.70
2018-06-15T12:02:03.295Z,21.70
2018-06-15T12:04:31.867Z,21.70
2018-06-15T12:07:00.417Z,21.60
2018-06-15T12:09:28.895Z,21.50
2018-06-15T12:11:57.465Z,21.30
2018-06-15T12:14:25.981Z,21.10
2018-06-15T12:16:55.716Z,21.00
2018-06-15T12:19:24.148Z,21.00
2018-06-15T12:26:49.134Z,21.10
2018-06-15T12:29:17.552Z,21.20
2018-06-15T12:31:46.129Z,21.30
2018-06-15T12:34:14.601Z,21.30
2018-06-15T12:36:43.098Z,21.30
2018-06-15T12:39:11.951Z,21.40
2018-06-15T12:44:09.393Z,21.40
2018-06-15T12:46:37.905Z,21.40
2018-06-15T12:49:06.683Z,21.40
2018-06-15T12:51:35.173Z,21.40
2018-06-15T12:56:31.749Z,21.20
2018-06-15T12:59:00.164Z,21.00
2018-06-15T13:01:28.678Z,20.80
2018-06-15T13:03:57.145Z,20.70
2018-06-15T13:06:25.727Z,20.70
2018-06-15T13:08:54.192Z,20.90
2018-06-15T13:11:22.756Z,20.90
2018-06-15T13:13:51.258Z,20.80
2018-06-15T13:16:19.738Z,20.80
2018-06-15T13:18:48.155Z,20.80
2018-06-15T13:21:16.666Z,20.80
2018-06-15T13:23:45.187Z,20.90
2018-06-15T13:26:13.736Z,20.90
2018-06-15T13:28:42.173Z,20.80
2018-06-15T13:31:10.584Z,20.90
2018-06-15T13:33:39.113Z,21.00
2018-06-15T13:36:07.549Z,21.10
2018-06-15T13:38:36.082Z,21.10
2018-06-15T13:41:04.612Z,21.10
2018-06-15T13:43:33.665Z,21.20
2018-06-15T13:46:02.124Z,21.40
2018-06-15T13:48:30.623Z,21.40
2018-06-15T13:50:59.145Z,21.40
2018-06-15T13:53:27.664Z,21.50
2018-06-15T13:55:56.220Z,21.60
2018-06-15T13:58:24.728Z,21.60
2018-06-15T14:00:53.177Z,21.70
2018-06-15T14:03:21.604Z,21.70
2018-06-15T14:05:50.054Z,21.80
2018-06-15T14:08:19.448Z,21.70
2018-06-15T14:10:47.876Z,21.60
2018-06-15T14:13:16.302Z,21.50
2018-06-15T14:15:44.716Z,21.60
2018-06-15T14:18:13.150Z,21.60
2018-06-15T14:20:42.460Z,21.70
2018-06-15T14:23:10.893Z,21.70
2018-06-15T14:25:39.330Z,21.60
2018-06-15T14:28:07.830Z,21.50
2018-06-15T14:30:36.408Z,21.50
2018-06-15T14:33:04.856Z,21.30
2018-06-15T14:35:33.401Z,21.30
2018-06-15T14:38:02.073Z,21.40
2018-06-15T14:40:30.648Z,21.40
2018-06-15T14:42:59.225Z,21.40
2018-06-15T14:45:27.879Z,21.40
2018-06-15T14:47:56.293Z,21.50
2018-06-15T14:50:24.736Z,21.40
2018-06-15T14:52:53.364Z,21.30
2018-06-15T14:55:21.943Z,21.40
2018-06-15T14:57:50.386Z,21.40
2018-06-15T15:00:18.994Z,21.40
2018-06-15T15:02:47.389Z,21.30
2018-06-15T15:07:44.146Z,21.10
2018-06-15T15:10:12.553Z,21.10
2018-06-15T15:12:40.980Z,21.10
2018-06-15T15:15:09.530Z,21.10
2018-06-15T15:17:37.941Z,21.20
2018-06-15T15:20:06.442Z,21.10
2018-06-15T15:22:34.914Z,21.10
2018-06-15T15:25:03.481Z,21.10
2018-06-15T15:27:32.104Z,21.20
2018-06-15T15:30:00.820Z,21.30
2018-06-15T15:32:29.241Z,21.30
2018-06-15T15:34:57.842Z,21.30
2018-06-15T15:37:26.292Z,21.20
2018-06-15T15:39:54.737Z,21.10
2018-06-15T15:42:23.158Z,21.10
2018-06-15T15:44:51.585Z,21.10
2018-06-15T15:47:20.215Z,21.10
2018-06-15T15:49:48.688Z,21.10
2018-06-15T15:52:17.212Z,21.00
2018-06-15T15:54:45.609Z,20.90
2018-06-15T15:57:14.085Z,20.90
2018-06-15T15:59:42.508Z,21.00
2018-06-15T16:02:10.923Z,21.00
2018-06-15T16:04:39.401Z,21.00
2018-06-15T16:07:07.883Z,20.90
2018-06-15T16:09:36.311Z,20.90
2018-06-15T16:12:04.771Z,20.90
2018-06-15T16:14:33.392Z,21.00
2018-06-15T16:17:01.993Z,21.00
2018-06-15T16:19:30.449Z,21.10
2018-06-15T16:21:58.905Z,21.10
2018-06-15T16:24:27.333Z,21.10
2018-06-15T16:26:55.781Z,21.00
2018-06-15T16:29:24.374Z,20.90
2018-06-15T16:31:52.862Z,21.00
2018-06-15T16:34:21.300Z,21.00
2018-06-15T16:36:49.745Z,20.90
2018-06-15T16:39:18.320Z,20.90
2018-06-15T16:41:46.872Z,20.80
2018-06-15T16:44:15.791Z,20.70
2018-06-15T16:49:12.740Z,20.60
2018-06-15T16:51:41.194Z,20.60
2018-06-15T16:54:09.642Z,20.60
2018-06-15T16:59:06.381Z,20.60
2018-06-15T17:01:34.915Z,20.60
2018-06-15T17:04:03.503Z,20.60
2018-06-15T17:06:32.149Z,20.60
2018-06-15T17:09:00.609Z,20.60
2018-06-15T17:11:29.063Z,20.60
2018-06-15T17:13:57.514Z,20.60
2018-06-15T17:16:25.930Z,20.60
2018-06-15T17:18:54.401Z,20.60
2018-06-15T17:23:51.053Z,20.50
2018-06-15T17:26:19.642Z,20.50
2018-06-15T17:28:48.085Z,20.40
2018-06-15T17:31:16.726Z,20.40
2018-06-15T17:33:45.183Z,20.40
2018-06-15T17:36:13.684Z,20.40
2018-06-15T17:38:42.147Z,20.40
2018-06-15T17:41:10.708Z,20.30
2018-06-15T17:43:39.262Z,20.30
2018-06-15T17:48:36.117Z,20.20
2018-06-15T17:51:05.545Z,20.20
2018-06-15T17:53:34.269Z,20.20
2018-06-15T17:56:02.719Z,20.10
2018-06-15T17:58:31.277Z,20.10
2018-06-15T18:00:59.792Z,20.10
2018-06-15T18:03:28.243Z,20.10
2018-06-15T18:08:24.858Z,20.00
2018-06-15T18:10:53.465Z,20.00
2018-06-15T18:13:22.586Z,20.00
2018-06-15T18:15:51.214Z,20.00
2018-06-15T18:18:19.808Z,20.00
2018-06-15T18:20:50.805Z,20.00
2018-06-15T18:23:20.919Z,20.00
2018-06-15T18:25:53.046Z,19.90
2018-06-15T18:28:21.548Z,19.90
2018-06-15T18:30:50.006Z,19.90
2018-06-15T18:33:18.703Z,19.90
2018-06-15T18:35:47.214Z,19.90
2018-06-15T18:38:15.984Z,19.80
2018-06-15T18:40:44.483Z,19.80
2018-06-15T18:43:13.022Z,19.70
2018-06-15T18:45:41.568Z,19.70
2018-06-15T18:48:10.279Z,19.60
2018-06-15T18:50:39.703Z,19.60
2018-06-15T18:53:08.278Z,19.50
2018-06-15T18:55:37.695Z,19.40
2018-06-15T18:58:07.030Z,19.40
2018-06-15T19:00:35.539Z,19.30
2018-06-15T19:03:04.179Z,19.30
2018-06-15T19:05:32.786Z,19.20
2018-06-15T19:08:01.388Z,19.20
2018-06-15T19:10:30.067Z,19.10
2018-06-15T19:12:59.185Z,19.10
2018-06-15T19:15:27.756Z,19.00
2018-06-15T19:17:57.025Z,19.00
2018-06-15T19:20:27.127Z,18.90
2018-06-15T19:22:56.511Z,18.80
2018-06-15T19:25:28.567Z,18.70
2018-06-15T19:27:58.653Z,18.70
2018-06-15T19:30:27.867Z,18.60
2018-06-15T19:35:25.173Z,18.50
2018-06-15T19:37:54.068Z,18.50
2018-06-15T19:40:22.791Z,18.40
2018-06-15T19:42:52.272Z,18.40
2018-06-15T19:45:20.904Z,18.20
2018-06-15T19:47:49.652Z,18.20
2018-06-15T19:50:18.100Z,18.10
2018-06-15T19:55:15.778Z,18.10
2018-06-15T19:57:44.518Z,18.00
2018-06-15T20:00:13.197Z,18.00
2018-06-15T20:02:41.663Z,17.90
2018-06-15T20:05:10.375Z,17.80
2018-06-15T20:07:38.937Z,17.80
2018-06-15T20:12:35.706Z,17.60
2018-06-15T20:15:04.175Z,17.50
2018-06-15T20:17:32.692Z,17.30
2018-06-15T20:20:01.289Z,17.30
2018-06-15T20:22:29.780Z,17.20
2018-06-15T20:24:58.502Z,17.10
2018-06-15T20:27:27.652Z,17.00
2018-06-15T20:29:56.248Z,17.00
2018-06-15T20:32:24.730Z,17.00
2018-06-15T20:34:53.381Z,16.90
2018-06-15T20:37:21.915Z,16.90
2018-06-15T20:39:50.562Z,16.80
2018-06-15T20:42:19.127Z,16.80
2018-06-15T20:44:47.682Z,16.80
2018-06-15T20:47:16.186Z,16.70
2018-06-15T20:49:44.789Z,16.70
2018-06-15T20:52:13.258Z,16.60
2018-06-15T20:54:41.761Z,16.60
2018-06-15T20:57:10.218Z,16.50
2018-06-15T20:59:38.889Z,16.50
2018-06-15T21:02:07.473Z,16.40
2018-06-15T21:07:04.179Z,16.30
2018-06-15T21:09:32.719Z,16.20
2018-06-15T21:12:01.877Z,16.20
2018-06-15T21:14:30.306Z,16.20
2018-06-15T21:16:58.769Z,16.10
2018-06-15T21:19:27.388Z,16.10
2018-06-15T21:21:55.840Z,16.00
2018-06-15T21:24:24.382Z,15.90
2018-06-15T21:26:52.800Z,15.80
2018-06-15T21:29:21.235Z,15.80
2018-06-15T21:31:49.787Z,15.70
2018-06-15T21:34:18.280Z,15.70
2018-06-15T21:36:46.724Z,15.60
2018-06-15T21:39:15.201Z,15.60
2018-06-15T21:41:43.752Z,15.60
2018-06-15T21:44:12.212Z,15.60
2018-06-15T21:46:40.659Z,15.60
2018-06-15T21:49:09.173Z,15.50
2018-06-15T21:51:37.737Z,15.40
2018-06-15T21:54:06.200Z,15.40
2018-06-15T21:56:34.785Z,15.30
2018-06-15T21:59:03.201Z,15.30
2018-06-15T22:01:31.633Z,15.20
2018-06-15T22:04:01.046Z,15.20
2018-06-15T22:06:29.451Z,15.20
2018-06-15T22:08:57.865Z,15.10
2018-06-15T22:11:26.493Z,15.10
2018-06-15T22:13:54.915Z,15.00
2018-06-15T22:16:23.447Z,15.00
2018-06-15T22:18:51.939Z,15.00
2018-06-15T22:21:20.399Z,15.00
2018-06-15T22:23:48.840Z,14.90
2018-06-15T22:26:17.351Z,14.80
2018-06-15T22:28:45.764Z,14.60
2018-06-15T22:31:14.276Z,14.60
2018-06-15T22:33:42.714Z,14.60
2018-06-15T22:36:11.112Z,14.50
2018-06-15T22:38:39.721Z,14.50
2018-06-15T22:41:08.186Z,14.50
2018-06-15T22:43:37.341Z,14.50
2018-06-15T22:46:06.065Z,14.50
2018-06-15T22:48:34.509Z,14.40
2018-06-15T22:51:03.052Z,14.40
2018-06-15T22:53:31.983Z,14.40
2018-06-15T22:56:00.402Z,14.40
2018-06-15T22:58:28.765Z,14.30
2018-06-15T23:00:57.303Z,14.30
2018-06-15T23:03:25.763Z,14.10
2018-06-15T23:05:54.181Z,14.00
2018-06-15T23:08:22.573Z,13.90
2018-06-15T23:10:51.001Z,13.90
2018-06-15T23:13:19.493Z,13.90
2018-06-15T23:15:48.043Z,13.80
2018-06-15T23:18:16.463Z,13.80
2018-06-15T23:20:44.944Z,13.80
2018-06-15T23:23:13.347Z,13.80
2018-06-15T23:25:41.855Z,13.80
2018-06-15T23:28:10.357Z,13.70
2018-06-15T23:30:38.769Z,13.70
2018-06-15T23:33:07.242Z,13.70
2018-06-15T23:35:35.647Z,13.70
2018-06-15T23:38:04.119Z,13.60
2018-06-15T23:40:32.532Z,13.60
2018-06-15T23:43:01.015Z,13.60
2018-06-15T23:45:30.015Z,13.60
2018-06-15T23:47:58.464Z,13.60
2018-06-15T23:50:26.899Z,13.60
2018-06-15T23:52:55.322Z,13.60
2018-06-15T23:57:52.118Z,13.50
